sensor_id;sensor_type;location;lat;lon;timestamp;P1;durP1;ratioP1;P2;durP2;ratioP2
47804;SDS011;33568;45.286;9.900;2023-09-30T00:00:27;22.73;;;16.73;;
47804;SDS011;33568;45.286;9.900;2023-09-30T00:02:53;26.45;;;17.10;;
47804;SDS011;33568;45.286;9.900;2023-09-30T00:05:20;24.10;;;17.67;;
47804;SDS011;33568;45.286;9.900;2023-09-30T00:07:46;20.23;;;16.73;;
47804;SDS011;33568;45.286;9.900;2023-09-30T00:10:13;24.95;;;16.25;;
47804;SDS011;33568;45.286;9.900;2023-09-30T00:12:40;22.65;;;18.42;;
47804;SDS011;33568;45.286;9.900;2023-09-30T00:15:25;21.25;;;18.95;;
47804;SDS011;33568;45.286;9.900;2023-09-30T00:20:56;35.42;;;24.10;;
47804;SDS011;33568;45.286;9.900;2023-09-30T00:23:23;25.60;;;18.27;;
47804;SDS011;33568;45.286;9.900;2023-09-30T00:25:49;19.80;;;17.65;;
47804;SDS011;33568;45.286;9.900;2023-09-30T00:28:16;23.20;;;18.45;;
47804;SDS011;33568;45.286;9.900;2023-09-30T00:30:42;28.48;;;19.40;;
47804;SDS011;33568;45.286;9.900;2023-09-30T00:33:27;18.92;;;17.02;;
47804;SDS011;33568;45.286;9.900;2023-09-30T00:38:39;24.67;;;22.17;;
47804;SDS011;33568;45.286;9.900;2023-09-30T00:41:06;30.50;;;23.00;;
47804;SDS011;33568;45.286;9.900;2023-09-30T00:43:35;32.95;;;20.73;;
47804;SDS011;33568;45.286;9.900;2023-09-30T00:46:06;24.10;;;21.35;;
47804;SDS011;33568;45.286;9.900;2023-09-30T00:48:57;21.77;;;18.88;;
47804;SDS011;33568;45.286;9.900;2023-09-30T00:51:43;24.60;;;16.75;;
47804;SDS011;33568;45.286;9.900;2023-09-30T00:54:10;22.58;;;18.10;;
47804;SDS011;33568;45.286;9.900;2023-09-30T00:56:41;20.17;;;17.02;;
47804;SDS011;33568;45.286;9.900;2023-09-30T00:59:13;23.75;;;16.75;;
47804;SDS011;33568;45.286;9.900;2023-09-30T01:01:41;20.50;;;16.65;;
47804;SDS011;33568;45.286;9.900;2023-09-30T01:04:10;20.17;;;17.50;;
47804;SDS011;33568;45.286;9.900;2023-09-30T01:09:23;18.88;;;15.88;;
47804;SDS011;33568;45.286;9.900;2023-09-30T01:11:51;20.13;;;17.95;;
47804;SDS011;33568;45.286;9.900;2023-09-30T01:19:55;22.33;;;16.75;;
47804;SDS011;33568;45.286;9.900;2023-09-30T01:23:00;19.13;;;17.10;;
47804;SDS011;33568;45.286;9.900;2023-09-30T01:25:47;21.17;;;17.63;;
47804;SDS011;33568;45.286;9.900;2023-09-30T01:28:15;21.48;;;17.52;;
47804;SDS011;33568;45.286;9.900;2023-09-30T01:31:00;23.40;;;16.98;;
47804;SDS011;33568;45.286;9.900;2023-09-30T01:33:27;27.35;;;17.48;;
47804;SDS011;33568;45.286;9.900;2023-09-30T01:35:54;20.83;;;15.48;;
47804;SDS011;33568;45.286;9.900;2023-09-30T01:38:39;24.38;;;17.20;;
47804;SDS011;33568;45.286;9.900;2023-09-30T01:41:24;22.23;;;15.65;;
47804;SDS011;33568;45.286;9.900;2023-09-30T01:43:50;20.00;;;16.77;;
47804;SDS011;33568;45.286;9.900;2023-09-30T01:50:17;19.10;;;17.00;;
47804;SDS011;33568;45.286;9.900;2023-09-30T01:53:02;19.48;;;16.67;;
47804;SDS011;33568;45.286;9.900;2023-09-30T01:55:47;19.90;;;17.08;;
47804;SDS011;33568;45.286;9.900;2023-09-30T01:58:14;19.60;;;16.85;;
47804;SDS011;33568;45.286;9.900;2023-09-30T02:01:03;18.63;;;16.20;;
47804;SDS011;33568;45.286;9.900;2023-09-30T02:03:29;19.90;;;16.63;;
47804;SDS011;33568;45.286;9.900;2023-09-30T02:06:15;20.30;;;17.48;;
47804;SDS011;33568;45.286;9.900;2023-09-30T02:08:41;19.73;;;16.70;;
47804;SDS011;33568;45.286;9.900;2023-09-30T02:11:11;18.02;;;16.05;;
47804;SDS011;33568;45.286;9.900;2023-09-30T02:13:56;19.02;;;17.08;;
47804;SDS011;33568;45.286;9.900;2023-09-30T02:16:23;24.60;;;17.63;;
47804;SDS011;33568;45.286;9.900;2023-09-30T02:18:50;20.10;;;18.00;;
47804;SDS011;33568;45.286;9.900;2023-09-30T02:21:17;21.83;;;18.40;;
47804;SDS011;33568;45.286;9.900;2023-09-30T02:23:44;18.95;;;16.63;;
47804;SDS011;33568;45.286;9.900;2023-09-30T02:26:14;22.92;;;17.08;;
47804;SDS011;33568;45.286;9.900;2023-09-30T02:28:59;22.25;;;18.52;;
47804;SDS011;33568;45.286;9.900;2023-09-30T02:31:26;21.27;;;18.35;;
47804;SDS011;33568;45.286;9.900;2023-09-30T02:34:30;23.02;;;18.83;;
47804;SDS011;33568;45.286;9.900;2023-09-30T02:37:16;19.73;;;17.63;;
47804;SDS011;33568;45.286;9.900;2023-09-30T02:39:44;22.17;;;19.80;;
47804;SDS011;33568;45.286;9.900;2023-09-30T02:42:10;20.50;;;18.30;;
47804;SDS011;33568;45.286;9.900;2023-09-30T02:45:15;22.88;;;18.13;;
47804;SDS011;33568;45.286;9.900;2023-09-30T02:47:44;22.75;;;20.38;;
47804;SDS011;33568;45.286;9.900;2023-09-30T02:50:11;26.85;;;18.73;;
47804;SDS011;33568;45.286;9.900;2023-09-30T02:55:24;22.92;;;17.65;;
47804;SDS011;33568;45.286;9.900;2023-09-30T02:57:51;24.35;;;19.52;;
47804;SDS011;33568;45.286;9.900;2023-09-30T03:00:18;22.52;;;20.13;;
47804;SDS011;33568;45.286;9.900;2023-09-30T03:02:53;24.17;;;20.95;;
47804;SDS011;33568;45.286;9.900;2023-09-30T03:05:20;22.30;;;19.95;;
47804;SDS011;33568;45.286;9.900;2023-09-30T03:10:33;20.88;;;18.52;;
47804;SDS011;33568;45.286;9.900;2023-09-30T03:12:59;21.73;;;19.38;;
47804;SDS011;33568;45.286;9.900;2023-09-30T03:15:29;25.65;;;19.13;;
47804;SDS011;33568;45.286;9.900;2023-09-30T03:18:14;25.92;;;20.15;;
47804;SDS011;33568;45.286;9.900;2023-09-30T03:20:59;22.38;;;18.60;;
47804;SDS011;33568;45.286;9.900;2023-09-30T03:23:45;22.53;;;18.70;;
47804;SDS011;33568;45.286;9.900;2023-09-30T03:28:57;28.60;;;21.65;;
47804;SDS011;33568;45.286;9.900;2023-09-30T03:31:24;21.88;;;19.42;;
47804;SDS011;33568;45.286;9.900;2023-09-30T03:33:51;22.95;;;19.63;;
47804;SDS011;33568;45.286;9.900;2023-09-30T03:36:20;32.78;;;21.17;;
47804;SDS011;33568;45.286;9.900;2023-09-30T03:38:48;22.17;;;19.58;;
47804;SDS011;33568;45.286;9.900;2023-09-30T03:41:33;22.88;;;20.42;;
47804;SDS011;33568;45.286;9.900;2023-09-30T03:44:03;20.88;;;18.67;;
47804;SDS011;33568;45.286;9.900;2023-09-30T03:46:49;20.83;;;18.25;;
47804;SDS011;33568;45.286;9.900;2023-09-30T03:49:20;22.17;;;19.02;;
47804;SDS011;33568;45.286;9.900;2023-09-30T03:51:47;20.92;;;18.48;;
47804;SDS011;33568;45.286;9.900;2023-09-30T03:54:32;27.83;;;24.88;;
47804;SDS011;33568;45.286;9.900;2023-09-30T03:57:18;22.88;;;20.50;;
47804;SDS011;33568;45.286;9.900;2023-09-30T03:59:45;23.52;;;21.00;;
47804;SDS011;33568;45.286;9.900;2023-09-30T04:02:14;25.02;;;19.00;;
47804;SDS011;33568;45.286;9.900;2023-09-30T04:04:41;22.75;;;19.55;;
47804;SDS011;33568;45.286;9.900;2023-09-30T04:07:45;32.17;;;28.75;;
47804;SDS011;33568;45.286;9.900;2023-09-30T04:10:12;22.63;;;20.20;;
47804;SDS011;33568;45.286;9.900;2023-09-30T04:12:38;22.05;;;19.90;;
47804;SDS011;33568;45.286;9.900;2023-09-30T04:15:05;24.90;;;19.30;;
47804;SDS011;33568;45.286;9.900;2023-09-30T04:17:50;26.50;;;22.30;;
47804;SDS011;33568;45.286;9.900;2023-09-30T04:20:18;29.90;;;20.60;;
47804;SDS011;33568;45.286;9.900;2023-09-30T04:22:49;36.78;;;21.58;;
47804;SDS011;33568;45.286;9.900;2023-09-30T04:25:34;44.58;;;23.17;;
47804;SDS011;33568;45.286;9.900;2023-09-30T04:28:01;26.17;;;21.15;;
47804;SDS011;33568;45.286;9.900;2023-09-30T04:30:46;33.75;;;23.05;;
47804;SDS011;33568;45.286;9.900;2023-09-30T04:33:32;40.83;;;23.70;;
47804;SDS011;33568;45.286;9.900;2023-09-30T04:36:01;27.08;;;22.80;;
47804;SDS011;33568;45.286;9.900;2023-09-30T04:38:46;31.83;;;21.45;;
47804;SDS011;33568;45.286;9.900;2023-09-30T04:41:13;39.50;;;23.05;;
47804;SDS011;33568;45.286;9.900;2023-09-30T04:43:41;30.13;;;21.35;;
47804;SDS011;33568;45.286;9.900;2023-09-30T04:46:09;32.78;;;23.52;;
47804;SDS011;33568;45.286;9.900;2023-09-30T04:48:54;33.72;;;25.05;;
47804;SDS011;33568;45.286;9.900;2023-09-30T04:51:20;34.60;;;25.75;;
47804;SDS011;33568;45.286;9.900;2023-09-30T04:54:06;27.83;;;22.48;;
47804;SDS011;33568;45.286;9.900;2023-09-30T04:56:55;46.55;;;28.02;;
47804;SDS011;33568;45.286;9.900;2023-09-30T04:59:21;33.22;;;28.95;;
47804;SDS011;33568;45.286;9.900;2023-09-30T05:01:50;28.10;;;22.90;;
47804;SDS011;33568;45.286;9.900;2023-09-30T05:04:17;27.25;;;23.65;;
47804;SDS011;33568;45.286;9.900;2023-09-30T05:06:43;33.20;;;28.83;;
47804;SDS011;33568;45.286;9.900;2023-09-30T05:09:48;33.97;;;26.58;;
47804;SDS011;33568;45.286;9.900;2023-09-30T05:12:14;34.83;;;29.38;;
47804;SDS011;33568;45.286;9.900;2023-09-30T05:14:42;40.55;;;31.25;;
47804;SDS011;33568;45.286;9.900;2023-09-30T05:17:09;31.42;;;28.38;;
47804;SDS011;33568;45.286;9.900;2023-09-30T05:19:35;30.95;;;25.95;;
47804;SDS011;33568;45.286;9.900;2023-09-30T05:22:03;33.55;;;26.77;;
47804;SDS011;33568;45.286;9.900;2023-09-30T05:25:07;34.03;;;24.08;;
47804;SDS011;33568;45.286;9.900;2023-09-30T05:27:34;27.77;;;24.83;;
47804;SDS011;33568;45.286;9.900;2023-09-30T05:30:00;30.20;;;26.20;;
47804;SDS011;33568;45.286;9.900;2023-09-30T05:32:27;35.05;;;28.40;;
47804;SDS011;33568;45.286;9.900;2023-09-30T05:34:53;34.95;;;31.40;;
47804;SDS011;33568;45.286;9.900;2023-09-30T05:37:20;34.28;;;27.60;;
47804;SDS011;33568;45.286;9.900;2023-09-30T05:39:47;35.58;;;29.58;;
47804;SDS011;33568;45.286;9.900;2023-09-30T05:42:17;33.15;;;26.70;;
47804;SDS011;33568;45.286;9.900;2023-09-30T05:44:44;39.92;;;30.35;;
47804;SDS011;33568;45.286;9.900;2023-09-30T05:47:11;32.63;;;27.90;;
47804;SDS011;33568;45.286;9.900;2023-09-30T05:49:56;34.70;;;28.55;;
47804;SDS011;33568;45.286;9.900;2023-09-30T05:52:42;35.33;;;29.83;;
47804;SDS011;33568;45.286;9.900;2023-09-30T05:55:10;29.85;;;26.67;;
47804;SDS011;33568;45.286;9.900;2023-09-30T05:57:55;30.85;;;26.35;;
47804;SDS011;33568;45.286;9.900;2023-09-30T06:03:08;30.15;;;26.55;;
47804;SDS011;33568;45.286;9.900;2023-09-30T06:05:39;35.22;;;27.85;;
47804;SDS011;33568;45.286;9.900;2023-09-30T06:08:07;29.70;;;26.63;;
47804;SDS011;33568;45.286;9.900;2023-09-30T06:10:39;29.85;;;26.65;;
47804;SDS011;33568;45.286;9.900;2023-09-30T06:15:58;33.00;;;27.55;;
47804;SDS011;33568;45.286;9.900;2023-09-30T06:18:24;30.65;;;27.30;;
47804;SDS011;33568;45.286;9.900;2023-09-30T06:20:51;38.58;;;27.48;;
47804;SDS011;33568;45.286;9.900;2023-09-30T06:23:18;33.53;;;28.00;;
47804;SDS011;33568;45.286;9.900;2023-09-30T06:25:44;30.17;;;26.73;;
47804;SDS011;33568;45.286;9.900;2023-09-30T06:28:10;40.35;;;29.00;;
47804;SDS011;33568;45.286;9.900;2023-09-30T06:30:39;33.75;;;27.17;;
47804;SDS011;33568;45.286;9.900;2023-09-30T06:33:08;32.60;;;29.33;;
47804;SDS011;33568;45.286;9.900;2023-09-30T06:35:37;32.53;;;26.48;;
47804;SDS011;33568;45.286;9.900;2023-09-30T06:38:05;32.35;;;26.60;;
47804;SDS011;33568;45.286;9.900;2023-09-30T06:40:51;31.70;;;28.30;;
47804;SDS011;33568;45.286;9.900;2023-09-30T06:43:17;33.53;;;27.27;;
47804;SDS011;33568;45.286;9.900;2023-09-30T06:46:08;30.40;;;27.23;;
47804;SDS011;33568;45.286;9.900;2023-09-30T06:48:38;33.97;;;26.38;;
47804;SDS011;33568;45.286;9.900;2023-09-30T06:51:17;36.72;;;29.20;;
47804;SDS011;33568;45.286;9.900;2023-09-30T06:53:46;32.10;;;27.33;;
47804;SDS011;33568;45.286;9.900;2023-09-30T06:56:13;41.70;;;28.33;;
47804;SDS011;33568;45.286;9.900;2023-09-30T06:58:39;41.15;;;28.33;;
47804;SDS011;33568;45.286;9.900;2023-09-30T07:06:56;34.92;;;26.38;;
47804;SDS011;33568;45.286;9.900;2023-09-30T07:09:22;34.78;;;26.10;;
47804;SDS011;33568;45.286;9.900;2023-09-30T07:11:49;30.77;;;26.00;;
47804;SDS011;33568;45.286;9.900;2023-09-30T07:14:15;36.03;;;24.23;;
47804;SDS011;33568;45.286;9.900;2023-09-30T07:19:27;31.88;;;24.55;;
47804;SDS011;33568;45.286;9.900;2023-09-30T07:22:11;31.13;;;24.48;;
47804;SDS011;33568;45.286;9.900;2023-09-30T07:24:39;30.27;;;24.98;;
47804;SDS011;33568;45.286;9.900;2023-09-30T07:27:24;29.42;;;24.58;;
47804;SDS011;33568;45.286;9.900;2023-09-30T07:29:50;32.83;;;25.35;;
47804;SDS011;33568;45.286;9.900;2023-09-30T07:32:17;32.20;;;26.27;;
47804;SDS011;33568;45.286;9.900;2023-09-30T07:34:43;36.50;;;25.48;;
47804;SDS011;33568;45.286;9.900;2023-09-30T07:37:10;40.10;;;27.73;;
47804;SDS011;33568;45.286;9.900;2023-09-30T07:39:55;34.75;;;26.05;;
47804;SDS011;33568;45.286;9.900;2023-09-30T07:45:25;39.22;;;26.10;;
47804;SDS011;33568;45.286;9.900;2023-09-30T07:48:10;39.03;;;27.30;;
47804;SDS011;33568;45.286;9.900;2023-09-30T07:50:36;43.70;;;27.98;;
47804;SDS011;33568;45.286;9.900;2023-09-30T07:53:04;39.28;;;28.80;;
47804;SDS011;33568;45.286;9.900;2023-09-30T07:58:55;34.35;;;30.00;;
47804;SDS011;33568;45.286;9.900;2023-09-30T08:01:41;33.72;;;28.92;;
47804;SDS011;33568;45.286;9.900;2023-09-30T08:04:26;32.15;;;28.77;;
47804;SDS011;33568;45.286;9.900;2023-09-30T08:06:53;34.80;;;28.58;;
47804;SDS011;33568;45.286;9.900;2023-09-30T08:09:19;38.95;;;30.92;;
47804;SDS011;33568;45.286;9.900;2023-09-30T08:12:23;50.47;;;32.53;;
47804;SDS011;33568;45.286;9.900;2023-09-30T08:14:49;39.50;;;31.08;;
47804;SDS011;33568;45.286;9.900;2023-09-30T08:17:35;43.25;;;30.63;;
47804;SDS011;33568;45.286;9.900;2023-09-30T08:20:02;44.65;;;32.22;;
47804;SDS011;33568;45.286;9.900;2023-09-30T08:22:30;47.38;;;30.00;;
47804;SDS011;33568;45.286;9.900;2023-09-30T08:24:56;32.33;;;27.85;;
47804;SDS011;33568;45.286;9.900;2023-09-30T08:34:08;40.92;;;27.92;;
47804;SDS011;33568;45.286;9.900;2023-09-30T08:36:34;37.03;;;30.45;;
47804;SDS011;33568;45.286;9.900;2023-09-30T08:39:19;29.73;;;26.50;;
47804;SDS011;33568;45.286;9.900;2023-09-30T08:42:05;30.77;;;27.10;;
47804;SDS011;33568;45.286;9.900;2023-09-30T08:44:35;31.90;;;27.58;;
47804;SDS011;33568;45.286;9.900;2023-09-30T08:47:08;33.25;;;28.90;;
47804;SDS011;33568;45.286;9.900;2023-09-30T08:52:23;30.00;;;26.33;;
47804;SDS011;33568;45.286;9.900;2023-09-30T08:54:51;35.90;;;26.27;;
47804;SDS011;33568;45.286;9.900;2023-09-30T09:00:23;33.22;;;28.05;;
47804;SDS011;33568;45.286;9.900;2023-09-30T09:02:49;31.52;;;26.98;;
47804;SDS011;33568;45.286;9.900;2023-09-30T09:05:35;29.83;;;26.70;;
47804;SDS011;33568;45.286;9.900;2023-09-30T09:08:20;33.72;;;27.40;;
47804;SDS011;33568;45.286;9.900;2023-09-30T09:10:53;31.90;;;25.27;;
47804;SDS011;33568;45.286;9.900;2023-09-30T09:13:24;30.95;;;26.55;;
47804;SDS011;33568;45.286;9.900;2023-09-30T09:16:07;34.08;;;26.38;;
47804;SDS011;33568;45.286;9.900;2023-09-30T09:19:14;33.83;;;26.60;;
47804;SDS011;33568;45.286;9.900;2023-09-30T09:22:18;36.03;;;25.70;;
47804;SDS011;33568;45.286;9.900;2023-09-30T09:25:05;28.55;;;23.67;;
47804;SDS011;33568;45.286;9.900;2023-09-30T09:27:53;24.10;;;21.58;;
47804;SDS011;33568;45.286;9.900;2023-09-30T09:30:20;24.98;;;22.05;;
47804;SDS011;33568;45.286;9.900;2023-09-30T09:32:54;29.50;;;23.25;;
47804;SDS011;33568;45.286;9.900;2023-09-30T09:35:44;28.73;;;23.45;;
47804;SDS011;33568;45.286;9.900;2023-09-30T09:38:48;27.35;;;22.33;;
47804;SDS011;33568;45.286;9.900;2023-09-30T09:41:22;33.17;;;26.65;;
47804;SDS011;33568;45.286;9.900;2023-09-30T09:43:49;33.28;;;25.55;;
47804;SDS011;33568;45.286;9.900;2023-09-30T09:46:18;30.50;;;23.05;;
47804;SDS011;33568;45.286;9.900;2023-09-30T09:48:45;31.75;;;22.98;;
47804;SDS011;33568;45.286;9.900;2023-09-30T09:51:31;24.17;;;21.57;;
47804;SDS011;33568;45.286;9.900;2023-09-30T09:53:58;30.25;;;22.23;;
47804;SDS011;33568;45.286;9.900;2023-09-30T09:56:44;26.90;;;23.77;;
47804;SDS011;33568;45.286;9.900;2023-09-30T09:59:11;35.30;;;21.30;;
47804;SDS011;33568;45.286;9.900;2023-09-30T10:01:39;33.65;;;25.33;;
47804;SDS011;33568;45.286;9.900;2023-09-30T10:04:07;38.55;;;23.90;;
47804;SDS011;33568;45.286;9.900;2023-09-30T10:06:52;36.45;;;22.48;;
47804;SDS011;33568;45.286;9.900;2023-09-30T10:09:58;28.60;;;22.63;;
47804;SDS011;33568;45.286;9.900;2023-09-30T10:12:32;23.58;;;20.42;;
47804;SDS011;33568;45.286;9.900;2023-09-30T10:20:36;27.45;;;21.80;;
47804;SDS011;33568;45.286;9.900;2023-09-30T10:26:27;29.60;;;23.55;;
47804;SDS011;33568;45.286;9.900;2023-09-30T10:28:53;32.60;;;23.20;;
47804;SDS011;33568;45.286;9.900;2023-09-30T10:34:48;28.98;;;20.17;;
47804;SDS011;33568;45.286;9.900;2023-09-30T10:37:21;27.15;;;17.52;;
47804;SDS011;33568;45.286;9.900;2023-09-30T10:39:54;30.25;;;17.95;;
47804;SDS011;33568;45.286;9.900;2023-09-30T10:42:47;23.73;;;15.30;;
47804;SDS011;33568;45.286;9.900;2023-09-30T10:51:01;20.88;;;16.10;;
47804;SDS011;33568;45.286;9.900;2023-09-30T10:53:45;22.88;;;18.23;;
47804;SDS011;33568;45.286;9.900;2023-09-30T10:56:12;23.40;;;16.20;;
47804;SDS011;33568;45.286;9.900;2023-09-30T11:01:32;25.05;;;18.55;;
47804;SDS011;33568;45.286;9.900;2023-09-30T11:04:18;22.95;;;19.15;;
47804;SDS011;33568;45.286;9.900;2023-09-30T11:06:46;23.48;;;17.02;;
47804;SDS011;33568;45.286;9.900;2023-09-30T11:09:19;22.02;;;15.73;;
47804;SDS011;33568;45.286;9.900;2023-09-30T11:14:58;17.63;;;14.67;;
47804;SDS011;33568;45.286;9.900;2023-09-30T11:17:25;18.02;;;14.95;;
47804;SDS011;33568;45.286;9.900;2023-09-30T11:20:11;21.20;;;14.60;;
47804;SDS011;33568;45.286;9.900;2023-09-30T11:22:37;25.13;;;17.05;;
47804;SDS011;33568;45.286;9.900;2023-09-30T11:25:05;27.13;;;18.98;;
47804;SDS011;33568;45.286;9.900;2023-09-30T11:27:50;26.42;;;16.92;;
47804;SDS011;33568;45.286;9.900;2023-09-30T11:30:16;19.60;;;17.40;;
47804;SDS011;33568;45.286;9.900;2023-09-30T11:33:20;23.73;;;18.15;;
47804;SDS011;33568;45.286;9.900;2023-09-30T11:36:05;24.15;;;16.98;;
47804;SDS011;33568;45.286;9.900;2023-09-30T11:38:32;22.85;;;17.48;;
47804;SDS011;33568;45.286;9.900;2023-09-30T11:40:59;23.00;;;17.30;;
47804;SDS011;33568;45.286;9.900;2023-09-30T11:46:54;20.95;;;15.73;;
47804;SDS011;33568;45.286;9.900;2023-09-30T11:49:30;20.20;;;15.95;;
47804;SDS011;33568;45.286;9.900;2023-09-30T11:52:04;32.13;;;16.20;;
47804;SDS011;33568;45.286;9.900;2023-09-30T11:54:36;25.05;;;16.38;;
47804;SDS011;33568;45.286;9.900;2023-09-30T11:57:46;24.73;;;17.25;;
47804;SDS011;33568;45.286;9.900;2023-09-30T12:00:13;22.98;;;16.63;;
47804;SDS011;33568;45.286;9.900;2023-09-30T12:02:58;29.35;;;18.40;;
47804;SDS011;33568;45.286;9.900;2023-09-30T12:05:43;27.70;;;17.52;;
47804;SDS011;33568;45.286;9.900;2023-09-30T12:10:57;26.83;;;17.80;;
47804;SDS011;33568;45.286;9.900;2023-09-30T12:13:25;22.98;;;16.83;;
47804;SDS011;33568;45.286;9.900;2023-09-30T12:18:56;42.88;;;19.17;;
47804;SDS011;33568;45.286;9.900;2023-09-30T12:21:22;29.27;;;21.10;;
47804;SDS011;33568;45.286;9.900;2023-09-30T12:23:49;22.60;;;19.10;;
47804;SDS011;33568;45.286;9.900;2023-09-30T12:29:23;26.15;;;18.95;;
47804;SDS011;33568;45.286;9.900;2023-09-30T12:31:50;34.58;;;20.35;;
47804;SDS011;33568;45.286;9.900;2023-09-30T12:37:40;26.67;;;19.70;;
47804;SDS011;33568;45.286;9.900;2023-09-30T12:40:25;17.30;;;12.73;;
47804;SDS011;33568;45.286;9.900;2023-09-30T12:43:10;34.58;;;19.00;;
47804;SDS011;33568;45.286;9.900;2023-09-30T12:45:56;15.10;;;10.27;;
47804;SDS011;33568;45.286;9.900;2023-09-30T12:48:41;35.75;;;18.05;;
47804;SDS011;33568;45.286;9.900;2023-09-30T12:51:07;10.73;;;8.55;;
47804;SDS011;33568;45.286;9.900;2023-09-30T12:53:34;23.48;;;18.02;;
47804;SDS011;33568;45.286;9.900;2023-09-30T12:56:20;24.90;;;17.00;;
47804;SDS011;33568;45.286;9.900;2023-09-30T12:59:05;30.70;;;16.98;;
47804;SDS011;33568;45.286;9.900;2023-09-30T13:01:32;23.48;;;19.38;;
47804;SDS011;33568;45.286;9.900;2023-09-30T13:04:00;27.95;;;18.90;;
47804;SDS011;33568;45.286;9.900;2023-09-30T13:06:45;27.52;;;19.33;;
47804;SDS011;33568;45.286;9.900;2023-09-30T13:09:11;22.40;;;18.55;;
47804;SDS011;33568;45.286;9.900;2023-09-30T13:14:26;13.00;;;8.93;;
47804;SDS011;33568;45.286;9.900;2023-09-30T13:16:54;21.33;;;14.30;;
47804;SDS011;33568;45.286;9.900;2023-09-30T13:19:40;21.03;;;16.37;;
47804;SDS011;33568;45.286;9.900;2023-09-30T13:22:07;18.67;;;12.77;;
47804;SDS011;33568;45.286;9.900;2023-09-30T13:24:52;23.92;;;17.40;;
47804;SDS011;33568;45.286;9.900;2023-09-30T13:27:19;33.17;;;20.10;;
47804;SDS011;33568;45.286;9.900;2023-09-30T13:32:49;20.77;;;16.60;;
47804;SDS011;33568;45.286;9.900;2023-09-30T13:35:15;25.13;;;15.60;;
47804;SDS011;33568;45.286;9.900;2023-09-30T13:40:27;17.52;;;13.10;;
47804;SDS011;33568;45.286;9.900;2023-09-30T13:45:57;12.45;;;8.82;;
47804;SDS011;33568;45.286;9.900;2023-09-30T13:48:23;17.15;;;13.85;;
47804;SDS011;33568;45.286;9.900;2023-09-30T13:50:50;25.58;;;14.68;;
47804;SDS011;33568;45.286;9.900;2023-09-30T13:53:35;16.55;;;11.68;;
47804;SDS011;33568;45.286;9.900;2023-09-30T14:01:51;12.32;;;9.15;;
47804;SDS011;33568;45.286;9.900;2023-09-30T14:04:18;24.52;;;17.40;;
47804;SDS011;33568;45.286;9.900;2023-09-30T14:06:45;22.10;;;15.93;;
47804;SDS011;33568;45.286;9.900;2023-09-30T14:09:13;21.50;;;13.43;;
47804;SDS011;33568;45.286;9.900;2023-09-30T14:11:41;19.95;;;14.45;;
47804;SDS011;33568;45.286;9.900;2023-09-30T14:14:07;23.33;;;14.93;;
47804;SDS011;33568;45.286;9.900;2023-09-30T14:16:35;23.40;;;15.30;;
47804;SDS011;33568;45.286;9.900;2023-09-30T14:19:21;27.33;;;13.98;;
47804;SDS011;33568;45.286;9.900;2023-09-30T14:21:48;26.90;;;15.88;;
47804;SDS011;33568;45.286;9.900;2023-09-30T14:24:15;24.58;;;15.43;;
47804;SDS011;33568;45.286;9.900;2023-09-30T14:26:42;14.55;;;11.43;;
47804;SDS011;33568;45.286;9.900;2023-09-30T14:29:10;16.40;;;12.90;;
47804;SDS011;33568;45.286;9.900;2023-09-30T14:31:55;19.42;;;15.25;;
47804;SDS011;33568;45.286;9.900;2023-09-30T14:40:11;14.50;;;12.95;;
47804;SDS011;33568;45.286;9.900;2023-09-30T14:42:39;22.25;;;12.30;;
47804;SDS011;33568;45.286;9.900;2023-09-30T14:45:07;16.83;;;11.57;;
47804;SDS011;33568;45.286;9.900;2023-09-30T14:47:34;19.25;;;13.05;;
47804;SDS011;33568;45.286;9.900;2023-09-30T14:50:01;12.13;;;7.43;;
47804;SDS011;33568;45.286;9.900;2023-09-30T14:52:45;20.80;;;15.55;;
47804;SDS011;33568;45.286;9.900;2023-09-30T14:55:31;21.85;;;11.85;;
47804;SDS011;33568;45.286;9.900;2023-09-30T14:58:16;26.90;;;14.85;;
47804;SDS011;33568;45.286;9.900;2023-09-30T15:00:43;21.15;;;14.73;;
47804;SDS011;33568;45.286;9.900;2023-09-30T15:03:28;18.55;;;13.60;;
47804;SDS011;33568;45.286;9.900;2023-09-30T15:05:58;20.67;;;12.75;;
47804;SDS011;33568;45.286;9.900;2023-09-30T15:08:43;12.80;;;8.90;;
47804;SDS011;33568;45.286;9.900;2023-09-30T15:16:40;17.75;;;13.38;;
47804;SDS011;33568;45.286;9.900;2023-09-30T15:19:09;18.88;;;13.38;;
47804;SDS011;33568;45.286;9.900;2023-09-30T15:21:36;23.67;;;13.95;;
47804;SDS011;33568;45.286;9.900;2023-09-30T15:24:03;18.70;;;11.18;;
47804;SDS011;33568;45.286;9.900;2023-09-30T15:26:30;22.27;;;12.32;;
47804;SDS011;33568;45.286;9.900;2023-09-30T15:29:00;19.88;;;13.45;;
47804;SDS011;33568;45.286;9.900;2023-09-30T15:31:27;22.13;;;12.13;;
47804;SDS011;33568;45.286;9.900;2023-09-30T15:33:55;22.10;;;12.88;;
47804;SDS011;33568;45.286;9.900;2023-09-30T15:36:41;15.55;;;10.48;;
47804;SDS011;33568;45.286;9.900;2023-09-30T15:39:25;13.52;;;11.45;;
47804;SDS011;33568;45.286;9.900;2023-09-30T15:41:52;17.67;;;12.40;;
47804;SDS011;33568;45.286;9.900;2023-09-30T15:44:18;29.90;;;13.63;;
47804;SDS011;33568;45.286;9.900;2023-09-30T15:46:45;20.65;;;13.18;;
47804;SDS011;33568;45.286;9.900;2023-09-30T15:49:11;8.63;;;6.88;;
47804;SDS011;33568;45.286;9.900;2023-09-30T15:51:37;15.00;;;8.43;;
47804;SDS011;33568;45.286;9.900;2023-09-30T15:54:22;7.80;;;6.40;;
47804;SDS011;33568;45.286;9.900;2023-09-30T15:56:49;8.02;;;6.75;;
47804;SDS011;33568;45.286;9.900;2023-09-30T15:59:15;11.10;;;6.07;;
47804;SDS011;33568;45.286;9.900;2023-09-30T16:04:27;9.27;;;6.93;;
47804;SDS011;33568;45.286;9.900;2023-09-30T16:06:53;17.63;;;9.52;;
47804;SDS011;33568;45.286;9.900;2023-09-30T16:09:20;13.60;;;9.05;;
47804;SDS011;33568;45.286;9.900;2023-09-30T16:11:46;16.88;;;9.13;;
47804;SDS011;33568;45.286;9.900;2023-09-30T16:14:13;8.40;;;6.57;;
47804;SDS011;33568;45.286;9.900;2023-09-30T16:16:40;8.88;;;6.63;;
47804;SDS011;33568;45.286;9.900;2023-09-30T16:19:06;9.68;;;6.32;;
47804;SDS011;33568;45.286;9.900;2023-09-30T16:21:36;9.07;;;6.60;;
47804;SDS011;33568;45.286;9.900;2023-09-30T16:24:02;8.32;;;6.43;;
47804;SDS011;33568;45.286;9.900;2023-09-30T16:26:29;8.48;;;6.90;;
47804;SDS011;33568;45.286;9.900;2023-09-30T16:29:51;11.77;;;6.78;;
47804;SDS011;33568;45.286;9.900;2023-09-30T16:32:36;8.25;;;6.90;;
47804;SDS011;33568;45.286;9.900;2023-09-30T16:35:22;9.70;;;7.28;;
47804;SDS011;33568;45.286;9.900;2023-09-30T16:38:07;11.23;;;7.45;;
47804;SDS011;33568;45.286;9.900;2023-09-30T16:41:10;12.68;;;8.80;;
47804;SDS011;33568;45.286;9.900;2023-09-30T16:43:37;18.98;;;13.82;;
47804;SDS011;33568;45.286;9.900;2023-09-30T16:46:23;12.87;;;10.90;;
47804;SDS011;33568;45.286;9.900;2023-09-30T16:48:50;20.63;;;13.13;;
47804;SDS011;33568;45.286;9.900;2023-09-30T16:51:16;13.60;;;10.95;;
47804;SDS011;33568;45.286;9.900;2023-09-30T16:53:43;17.13;;;11.38;;
47804;SDS011;33568;45.286;9.900;2023-09-30T16:56:09;12.95;;;10.23;;
47804;SDS011;33568;45.286;9.900;2023-09-30T16:58:36;14.95;;;10.13;;
47804;SDS011;33568;45.286;9.900;2023-09-30T17:01:20;16.65;;;9.55;;
47804;SDS011;33568;45.286;9.900;2023-09-30T17:03:47;14.20;;;9.75;;
47804;SDS011;33568;45.286;9.900;2023-09-30T17:06:14;13.18;;;11.27;;
47804;SDS011;33568;45.286;9.900;2023-09-30T17:08:44;13.68;;;9.52;;
47804;SDS011;33568;45.286;9.900;2023-09-30T17:11:11;12.93;;;9.88;;